Time;durP1;ratioP1;P1;durP2;ratioP2;P2;SDS_P1;SDS_P2;PMS_P1;PMS_P2;Temp;Humidity;BMP_temperature;BMP_pressure;BME280_temperature;BME280_humidity;BME280_pressure;Samples;Min_cycle;Max_cycle;Signal;HPM_P1;HPM_P2
2021/11/14 00:00:03;;;;;;;37.93;21.10;;;7.60;99.90;;;;;;5016018;28;20514;-84
2021/11/14 00:02:29;;;;;;;34.90;20.80;;;7.60;99.90;;;;;;5015991;28;20299;-83
2021/11/14 00:04:55;;;;;;;36.63;19.87;;;7.50;99.90;;;;;;5016177;28;20443;-83
2021/11/14 00:07:21;;;;;;;42.17;19.87;;;7.60;99.90;;;;;;5015910;28;20531;-84
2021/11/14 00:09:47;;;;;;;44.33;21.07;;;7.60;99.90;;;;;;5014832;28;20183;-84
2021/11/14 00:12:13;;;;;;;41.60;20.57;;;7.60;99.90;;;;;;5014572;28;20876;-84
2021/11/14 00:14:39;;;;;;;41.17;23.17;;;7.60;99.90;;;;;;5015691;28;20516;-84
2021/11/14 00:17:04;;;;;;;38.20;19.87;;;7.60;99.90;;;;;;5015868;28;20412;-84
2021/11/14 00:19:30;;;;;;;41.73;21.80;;;7.50;99.90;;;;;;5015919;28;20266;-84
2021/11/14 00:21:59;;;;;;;39.67;19.90;;;7.50;99.90;;;;;;5014384;28;20183;-84
2021/11/14 00:24:25;;;;;;;31.97;18.80;;;7.60;99.90;;;;;;5015800;28;20662;-83
2021/11/14 00:26:50;;;;;;;38.93;21.67;;;7.60;99.90;;;;;;5014399;28;20481;-84
2021/11/14 00:29:16;;;;;;;32.33;18.70;;;7.60;99.90;;;;;;5014089;28;20661;-84
2021/11/14 00:31:42;;;;;;;39.27;20.13;;;7.60;99.90;;;;;;5015550;28;20206;-84
2021/11/14 00:34:08;;;;;;;37.40;20.80;;;7.60;99.90;;;;;;5014283;28;20256;-84
2021/11/14 00:36:42;;;;;;;34.40;18.43;;;7.50;99.90;;;;;;5013985;28;20757;-84
2021/11/14 00:39:16;;;;;;;43.43;19.03;;;7.60;99.90;;;;;;5015416;28;20413;-83
2021/11/14 00:41:42;;;;;;;36.57;18.97;;;7.60;99.90;;;;;;5014221;28;20947;-84
2021/11/14 00:44:08;;;;;;;33.57;19.40;;;7.60;99.90;;;;;;5015023;28;20436;-83
2021/11/14 00:46:34;;;;;;;38.80;19.87;;;7.60;99.90;;;;;;5015400;28;20527;-83
2021/11/14 00:48:59;;;;;;;31.87;19.17;;;7.50;99.90;;;;;;5015339;28;20177;-83
2021/11/14 00:51:29;;;;;;;32.73;17.27;;;7.60;99.90;;;;;;5015333;28;20255;-83
2021/11/14 00:54:04;;;;;;;31.13;16.43;;;7.60;99.90;;;;;;5015285;28;20176;-84
2021/11/14 00:56:30;;;;;;;34.07;18.23;;;7.50;99.90;;;;;;5015278;28;20412;-84
2021/11/14 00:58:57;;;;;;;33.57;18.03;;;7.50;99.90;;;;;;5013593;28;20555;-84
2021/11/14 01:01:23;;;;;;;34.60;17.73;;;7.50;99.90;;;;;;5013558;28;20958;-84
2021/11/14 01:03:50;;;;;;;32.40;17.70;;;7.50;99.90;;;;;;5014905;28;20413;-84
2021/11/14 01:06:16;;;;;;;32.27;18.87;;;7.50;99.90;;;;;;5014522;28;20425;-83
2021/11/14 01:08:42;;;;;;;41.10;18.80;;;7.60;99.90;;;;;;5014602;28;20977;-84
2021/11/14 01:11:09;;;;;;;37.37;19.20;;;7.60;99.90;;;;;;5013624;28;20243;-84
2021/11/14 01:13:36;;;;;;;34.53;18.50;;;7.50;99.90;;;;;;5013275;28;20837;-83
2021/11/14 01:16:11;;;;;;;38.97;21.20;;;7.60;99.90;;;;;;5013752;28;20412;-84
2021/11/14 01:18:43;;;;;;;29.23;16.53;;;7.60;99.90;;;;;;5010632;28;20434;-83
2021/11/14 01:21:12;;;;;;;39.07;17.83;;;7.60;99.90;;;;;;5013399;28;20917;-83
2021/11/14 01:23:39;;;;;;;35.87;17.33;;;7.50;99.90;;;;;;5013355;28;20958;-83
2021/11/14 01:26:05;;;;;;;41.30;22.10;;;7.60;99.90;;;;;;5013555;28;20858;-83
2021/11/14 01:28:33;;;;;;;37.20;20.27;;;7.50;99.90;;;;;;5013137;28;20478;-84
2021/11/14 01:31:02;;;;;;;37.93;19.53;;;7.60;99.90;;;;;;5013208;28;20252;-83
2021/11/14 01:33:29;;;;;;;43.03;21.20;;;7.60;99.90;;;;;;5013190;28;20422;-83
2021/11/14 01:35:56;;;;;;;40.37;20.93;;;7.50;99.90;;;;;;5013413;28;20484;-84
2021/11/14 01:38:24;;;;;;;42.50;19.40;;;7.60;99.90;;;;;;5013567;28;20487;-83
2021/11/14 01:41:01;;;;;;;35.93;19.90;;;7.50;99.90;;;;;;5013514;28;20772;-83
2021/11/14 01:43:33;;;;;;;40.67;20.97;;;7.50;99.90;;;;;;5011218;28;21053;-87
2021/11/14 01:45:59;;;;;;;33.97;18.50;;;7.50;99.90;;;;;;5013504;28;20427;-83
2021/11/14 01:48:26;;;;;;;41.83;20.47;;;7.60;99.90;;;;;;5011728;28;20931;-82
2021/11/14 01:50:52;;;;;;;41.00;19.03;;;7.60;99.90;;;;;;5013061;28;20455;-82
2021/11/14 01:53:18;;;;;;;41.60;21.20;;;7.60;99.90;;;;;;5011702;28;20463;-83
2021/11/14 01:55:46;;;;;;;40.00;19.67;;;7.60;99.90;;;;;;5013016;28;20432;-83
2021/11/14 01:58:17;;;;;;;36.93;19.07;;;7.60;99.90;;;;;;5010142;28;20740;-82
2021/11/14 02:00:51;;;;;;;40.07;17.87;;;7.50;99.90;;;;;;5019179;28;20963;-83
2021/11/14 02:03:17;;;;;;;41.93;18.93;;;7.60;99.90;;;;;;5010451;28;20507;-84
2021/11/14 02:05:43;;;;;;;38.00;18.80;;;7.50;99.90;;;;;;5012723;28;20418;-82
2021/11/14 02:08:10;;;;;;;33.47;18.07;;;7.50;99.90;;;;;;5012581;28;20401;-83
2021/11/14 02:10:40;;;;;;;38.23;18.50;;;7.60;99.90;;;;;;5012588;28;20182;-83
2021/11/14 02:13:06;;;;;;;43.93;18.33;;;7.60;99.90;;;;;;5012173;28;20451;-84
2021/11/14 02:15:33;;;;;;;34.90;17.73;;;7.60;99.90;;;;;;5010031;28;20746;-83
2021/11/14 02:17:58;;;;;;;40.53;20.00;;;7.60;99.90;;;;;;5012648;28;20454;-84
2021/11/14 02:20:24;;;;;;;36.97;18.70;;;7.60;99.90;;;;;;5013858;28;20930;-83
2021/11/14 02:22:52;;;;;;;35.20;17.97;;;7.60;99.90;;;;;;5013846;28;20181;-84
2021/11/14 02:25:19;;;;;;;39.23;19.30;;;7.60;99.90;;;;;;5013892;28;20184;-83
2021/11/14 02:27:49;;;;;;;44.80;21.90;;;7.50;99.90;;;;;;5013660;28;20407;-83
2021/11/14 02:30:17;;;;;;;40.80;18.50;;;7.50;99.90;;;;;;5012409;28;20447;-83
2021/11/14 02:32:43;;;;;;;39.87;19.43;;;7.50;99.90;;;;;;5013543;28;20481;-82
2021/11/14 02:35:09;;;;;;;38.33;19.63;;;7.60;99.90;;;;;;5013664;28;20472;-83
2021/11/14 02:37:36;;;;;;;41.50;17.13;;;7.60;99.90;;;;;;5012291;28;20177;-83
2021/11/14 02:40:06;;;;;;;40.23;19.10;;;7.50;99.90;;;;;;5012252;28;20531;-83
2021/11/14 02:42:32;;;;;;;39.87;19.77;;;7.60;99.90;;;;;;5013108;28;20506;-82
2021/11/14 02:44:58;;;;;;;39.43;20.80;;;7.60;99.90;;;;;;5012237;28;20478;-83
2021/11/14 02:47:23;;;;;;;37.30;17.70;;;7.60;99.90;;;;;;5013511;28;20223;-82
2021/11/14 02:49:49;;;;;;;39.00;20.00;;;7.60;99.90;;;;;;5013476;28;20176;-83
2021/11/14 02:52:15;;;;;;;41.60;17.73;;;7.60;99.90;;;;;;5013521;28;20216;-82
2021/11/14 02:54:41;;;;;;;39.47;19.73;;;7.50;99.90;;;;;;5012221;28;20181;-83
2021/11/14 02:57:06;;;;;;;42.43;19.97;;;7.60;99.90;;;;;;5013138;28;20658;-82
2021/11/14 02:59:33;;;;;;;39.30;19.90;;;7.60;99.90;;;;;;5012024;28;20448;-82
2021/11/14 03:01:59;;;;;;;31.23;17.87;;;7.60;99.90;;;;;;5013105;28;20964;-82
2021/11/14 03:04:28;;;;;;;42.90;20.23;;;7.60;99.90;;;;;;5013385;28;20751;-82
2021/11/14 03:06:56;;;;;;;35.90;20.40;;;7.60;99.90;;;;;;5013213;28;20518;-83
2021/11/14 03:09:23;;;;;;;34.40;18.90;;;7.60;99.90;;;;;;5013247;28;20826;-83
2021/11/14 03:11:51;;;;;;;38.73;19.60;;;7.60;99.90;;;;;;5013083;28;20530;-83
2021/11/14 03:14:17;;;;;;;38.20;20.97;;;7.60;99.90;;;;;;5012904;28;20910;-83
2021/11/14 03:16:44;;;;;;;35.60;18.80;;;7.60;99.90;;;;;;5011825;28;20436;-82
2021/11/14 03:19:10;;;;;;;39.17;18.27;;;7.60;99.90;;;;;;5013110;28;20413;-82
2021/11/14 03:21:36;;;;;;;33.97;17.70;;;7.60;99.90;;;;;;5012963;28;20972;-83
2021/11/14 03:24:01;;;;;;;37.67;18.50;;;7.60;99.90;;;;;;5011888;28;20447;-82
2021/11/14 03:26:27;;;;;;;38.27;20.80;;;7.60;99.90;;;;;;5013138;28;20259;-83
2021/11/14 03:28:53;;;;;;;42.77;22.37;;;7.60;99.90;;;;;;5015318;28;20168;-82
2021/11/14 03:31:19;;;;;;;35.30;18.63;;;7.60;99.90;;;;;;5015685;28;20220;-82
2021/11/14 03:33:45;;;;;;;34.30;18.53;;;7.60;99.90;;;;;;5016904;28;20182;-83
2021/11/14 03:36:13;;;;;;;41.00;19.50;;;7.60;99.90;;;;;;5016815;28;20425;-84
2021/11/14 03:38:45;;;;;;;38.97;20.00;;;7.60;99.90;;;;;;5016859;28;20307;-83
2021/11/14 03:41:17;;;;;;;42.20;21.17;;;7.50;99.90;;;;;;5016766;28;20414;-83
2021/11/14 03:43:43;;;;;;;39.73;19.57;;;7.50;99.90;;;;;;5016420;28;20432;-83
2021/11/14 03:46:09;;;;;;;39.93;18.47;;;7.50;99.90;;;;;;5016741;28;20448;-83
2021/11/14 03:48:40;;;;;;;38.37;19.03;;;7.50;99.90;;;;;;5015390;28;20424;-83
2021/11/14 03:51:07;;;;;;;39.37;18.87;;;7.50;99.90;;;;;;5016570;28;20460;-85
2021/11/14 03:53:34;;;;;;;33.60;18.80;;;7.50;99.90;;;;;;5015216;28;20834;-83
2021/11/14 03:56:00;;;;;;;44.10;21.77;;;7.50;99.90;;;;;;5016501;28;20435;-85
2021/11/14 03:58:25;;;;;;;39.37;20.20;;;7.60;99.90;;;;;;5016186;28;20478;-85
2021/11/14 04:01:00;;;;;;;34.83;19.57;;;7.60;99.90;;;;;;5016446;28;20436;-84
2021/11/14 04:03:28;;;;;;;33.57;16.97;;;7.60;99.90;;;;;;5016167;28;20220;-84
2021/11/14 04:05:54;;;;;;;37.30;18.90;;;7.60;99.90;;;;;;5016179;28;20920;-83
2021/11/14 04:08:23;;;;;;;39.00;19.87;;;7.60;99.90;;;;;;5016312;28;20434;-84
2021/11/14 04:10:50;;;;;;;38.10;18.57;;;7.60;99.90;;;;;;5016345;28;20283;-84
2021/11/14 04:13:16;;;;;;;37.87;19.03;;;7.60;99.90;;;;;;5015734;28;20826;-84
2021/11/14 04:15:42;;;;;;;35.47;18.00;;;7.60;99.90;;;;;;5015997;28;20759;-84
2021/11/14 04:18:08;;;;;;;35.63;18.77;;;7.60;99.90;;;;;;5016044;28;20452;-84
2021/11/14 04:20:37;;;;;;;39.53;19.67;;;7.60;99.90;;;;;;5015958;28;20803;-84
2021/11/14 04:23:07;;;;;;;38.30;19.63;;;7.60;99.90;;;;;;5014642;28;20421;-83
2021/11/14 04:25:33;;;;;;;34.00;17.87;;;7.60;99.90;;;;;;5015893;28;20412;-83
2021/11/14 04:27:59;;;;;;;46.00;20.17;;;7.60;99.90;;;;;;5015527;28;20421;-83
2021/11/14 04:30:25;;;;;;;40.83;20.10;;;7.60;99.90;;;;;;5015920;28;20221;-83
2021/11/14 04:32:51;;;;;;;43.30;19.57;;;7.60;99.90;;;;;;5015771;28;20539;-83
2021/11/14 04:35:18;;;;;;;35.70;19.30;;;7.60;99.90;;;;;;5015525;28;20421;-83
2021/11/14 04:37:48;;;;;;;30.37;17.10;;;7.60;99.90;;;;;;5015662;28;20212;-83
2021/11/14 04:40:19;;;;;;;37.60;18.90;;;7.60;99.90;;;;;;5014411;28;20494;-83
2021/11/14 04:42:44;;;;;;;37.10;19.20;;;7.60;99.90;;;;;;5015332;28;20484;-84
2021/11/14 04:45:10;;;;;;;40.10;18.30;;;7.60;99.90;;;;;;5015764;28;20408;-83
2021/11/14 04:47:36;;;;;;;41.63;19.63;;;7.60;99.90;;;;;;5015705;28;20180;-83
2021/11/14 04:50:05;;;;;;;39.97;20.20;;;7.60;99.90;;;;;;5015657;28;20183;-84
2021/11/14 04:52:30;;;;;;;42.80;18.40;;;7.60;99.90;;;;;;5015314;28;20472;-83
2021/11/14 04:54:56;;;;;;;41.97;19.47;;;7.60;99.90;;;;;;5015431;28;20507;-84
2021/11/14 04:57:22;;;;;;;30.83;17.97;;;7.60;99.90;;;;;;5015096;28;20232;-83
2021/11/14 04:59:48;;;;;;;37.03;17.43;;;7.60;99.90;;;;;;5015296;28;20591;-84
2021/11/14 05:02:14;;;;;;;36.73;19.17;;;7.50;99.90;;;;;;5013802;28;20484;-85
2021/11/14 05:04:40;;;;;;;45.43;19.03;;;7.60;99.90;;;;;;5015164;28;20913;-83
2021/11/14 05:07:07;;;;;;;51.37;20.23;;;7.60;99.90;;;;;;5015069;28;20419;-83
2021/11/14 05:09:34;;;;;;;43.73;20.27;;;7.60;99.90;;;;;;5015285;28;20416;-83
2021/11/14 05:11:59;;;;;;;54.77;20.90;;;7.50;99.90;;;;;;5013542;28;20843;-84
2021/11/14 05:14:25;;;;;;;42.03;19.03;;;7.50;99.90;;;;;;5013888;28;20427;-85
2021/11/14 05:16:53;;;;;;;48.23;17.47;;;7.60;99.90;;;;;;5015314;28;20188;-84
2021/11/14 05:19:19;;;;;;;42.17;18.67;;;7.60;99.90;;;;;;5015026;28;20285;-83
2021/11/14 05:21:44;;;;;;;47.03;18.90;;;7.60;99.90;;;;;;5015122;28;20918;-84
2021/11/14 05:24:10;;;;;;;47.43;18.23;;;7.60;99.90;;;;;;5015134;28;20256;-83
2021/11/14 05:26:36;;;;;;;47.70;20.13;;;7.60;99.90;;;;;;5014872;28;20537;-84
2021/11/14 05:29:03;;;;;;;35.87;16.20;;;7.60;99.90;;;;;;5014588;28;20203;-83
2021/11/14 05:31:29;;;;;;;50.00;19.60;;;7.60;99.90;;;;;;5014650;28;20217;-84
2021/11/14 05:33:55;;;;;;;40.30;19.17;;;7.60;99.90;;;;;;5014568;28;20772;-84
2021/11/14 05:36:23;;;;;;;42.37;20.70;;;7.60;99.90;;;;;;5014618;28;20458;-84
2021/11/14 05:38:50;;;;;;;42.73;18.37;;;7.60;99.90;;;;;;5014570;28;20524;-84
2021/11/14 05:41:15;;;;;;;41.93;17.73;;;7.60;99.90;;;;;;5014615;28;20427;-84
2021/11/14 05:43:41;;;;;;;51.17;19.77;;;7.60;99.90;;;;;;5014232;28;20416;-84
2021/11/14 05:46:07;;;;;;;39.03;18.33;;;7.60;99.90;;;;;;5014493;28;20172;-84
2021/11/14 05:48:32;;;;;;;41.67;19.27;;;7.60;99.90;;;;;;5014333;28;20182;-84
2021/11/14 05:50:59;;;;;;;40.87;20.00;;;7.60;99.90;;;;;;5013856;28;20205;-84
2021/11/14 05:53:25;;;;;;;41.77;19.67;;;7.60;99.90;;;;;;5014253;28;20237;-84
2021/11/14 05:55:51;;;;;;;40.73;19.87;;;7.60;99.90;;;;;;5013900;28;20420;-84
2021/11/14 05:58:31;;;;;;;42.83;21.13;;;7.60;99.90;;;;;;5012612;28;20435;-83
2021/11/14 06:01:11;;;;;;;41.03;18.60;;;7.60;99.90;;;;;;5010686;28;20422;-83
2021/11/14 06:06:02;;;;;;;37.30;16.47;;;7.70;99.90;;;;;;5012815;28;20431;-84
2021/11/14 06:08:28;;;;;;;36.50;17.33;;;7.70;99.90;;;;;;5011314;28;20169;-83
2021/11/14 06:10:55;;;;;;;44.40;18.80;;;7.70;99.90;;;;;;5009860;28;20196;-83
2021/11/14 06:13:25;;;;;;;38.53;17.63;;;7.60;99.90;;;;;;5012358;28;20208;-84
2021/11/14 06:15:52;;;;;;;45.70;19.63;;;7.60;99.90;;;;;;5012284;28;20790;-83
2021/11/14 06:18:17;;;;;;;37.57;16.80;;;7.60;99.90;;;;;;5012603;28;20499;-84
2021/11/14 06:20:46;;;;;;;40.07;18.53;;;7.70;99.90;;;;;;5012649;28;20499;-84
2021/11/14 06:23:13;;;;;;;39.83;17.23;;;7.70;99.90;;;;;;5012549;28;20178;-83
2021/11/14 06:25:39;;;;;;;44.63;16.53;;;7.70;99.90;;;;;;5012570;28;20412;-84
2021/11/14 06:28:04;;;;;;;50.27;19.13;;;7.60;99.90;;;;;;5012331;28;20412;-83
2021/11/14 06:30:40;;;;;;;43.70;19.57;;;7.70;99.90;;;;;;5012391;28;20169;-83
2021/11/14 06:33:06;;;;;;;44.47;21.13;;;7.60;99.90;;;;;;5012521;28;20860;-83
2021/11/14 06:35:32;;;;;;;45.70;19.37;;;7.60;99.90;;;;;;5012284;28;20420;-83
2021/11/14 06:37:58;;;;;;;42.23;18.90;;;7.70;99.90;;;;;;5012359;28;20173;-83
2021/11/14 06:40:24;;;;;;;46.43;19.90;;;7.70;99.90;;;;;;5012228;28;20761;-83
2021/11/14 06:42:50;;;;;;;44.57;19.20;;;7.70;99.90;;;;;;5011866;28;20181;-83
2021/11/14 06:45:16;;;;;;;40.73;19.00;;;7.70;99.90;;;;;;5012284;28;20416;-83
2021/11/14 06:47:42;;;;;;;38.37;17.20;;;7.70;99.90;;;;;;5012041;28;20865;-83
2021/11/14 06:50:10;;;;;;;39.70;18.30;;;7.70;99.90;;;;;;5012216;28;20464;-83
2021/11/14 06:52:37;;;;;;;39.30;18.93;;;7.70;99.90;;;;;;5009626;28;20514;-83
2021/11/14 06:55:04;;;;;;;40.30;17.80;;;7.80;99.90;;;;;;5010673;28;20412;-83
2021/11/14 06:57:30;;;;;;;40.30;18.80;;;7.80;99.90;;;;;;5010137;28;20408;-83
2021/11/14 06:59:55;;;;;;;42.50;17.17;;;7.80;99.90;;;;;;5012069;28;20527;-83
2021/11/14 07:02:21;;;;;;;44.33;19.30;;;7.70;99.90;;;;;;5010983;28;20224;-83
2021/11/14 07:04:56;;;;;;;40.43;17.13;;;7.70;99.90;;;;;;5012942;28;20251;-83
2021/11/14 07:07:21;;;;;;;35.30;19.50;;;7.80;99.90;;;;;;5011811;28;20184;-83
2021/11/14 07:09:47;;;;;;;45.77;20.27;;;7.80;99.90;;;;;;5012574;28;20428;-83
2021/11/14 07:12:12;;;;;;;43.10;19.20;;;7.80;99.90;;;;;;5012503;28;20217;-83
2021/11/14 07:14:38;;;;;;;37.57;18.20;;;7.80;99.90;;;;;;5011680;28;20214;-82
2021/11/14 07:17:04;;;;;;;45.70;22.40;;;7.80;99.90;;;;;;5013096;28;20228;-83
2021/11/14 07:19:29;;;;;;;41.90;20.37;;;7.70;99.90;;;;;;5012617;28;20167;-83
2021/11/14 07:21:56;;;;;;;39.33;16.80;;;7.80;99.90;;;;;;5012420;28;20268;-83
2021/11/14 07:24:25;;;;;;;45.70;19.70;;;7.70;99.90;;;;;;5012967;28;20174;-83
2021/11/14 07:26:51;;;;;;;45.10;20.23;;;7.70;99.90;;;;;;5012632;28;20463;-83
2021/11/14 07:29:19;;;;;;;47.00;20.30;;;7.80;99.90;;;;;;5012848;28;20440;-83
2021/11/14 07:31:47;;;;;;;43.20;18.67;;;7.80;99.90;;;;;;5012715;28;20242;-83
2021/11/14 07:34:13;;;;;;;44.23;20.20;;;7.80;99.90;;;;;;5012866;28;20416;-83
2021/11/14 07:36:38;;;;;;;42.33;18.53;;;7.80;99.90;;;;;;5012621;28;20447;-84
2021/11/14 07:39:04;;;;;;;46.00;20.10;;;7.80;99.90;;;;;;5012849;28;20177;-84
2021/11/14 07:41:30;;;;;;;38.47;17.70;;;7.90;99.90;;;;;;5012540;28;20676;-84
2021/11/14 07:43:55;;;;;;;41.23;19.37;;;7.90;99.90;;;;;;5012861;28;20313;-85
2021/11/14 07:46:21;;;;;;;41.90;18.53;;;7.90;99.90;;;;;;5012908;28;20182;-85
2021/11/14 07:48:47;;;;;;;46.37;19.90;;;8.00;99.90;;;;;;5012933;28;20655;-83
2021/11/14 07:51:13;;;;;;;46.60;20.40;;;8.00;99.90;;;;;;5012740;28;20232;-85
2021/11/14 07:53:38;;;;;;;38.97;18.90;;;7.90;99.90;;;;;;5012726;28;20657;-83
2021/11/14 07:56:04;;;;;;;56.40;23.17;;;8.00;99.90;;;;;;5012859;28;20907;-82
2021/11/14 07:58:30;;;;;;;45.17;22.00;;;8.00;99.90;;;;;;5012310;28;20656;-83
2021/11/14 08:00:56;;;;;;;48.27;20.33;;;8.00;99.90;;;;;;5011955;28;20513;-82
2021/11/14 08:03:24;;;;;;;47.77;22.10;;;8.00;99.90;;;;;;5011871;28;20645;-82
2021/11/14 08:05:51;;;;;;;48.17;20.70;;;8.00;99.90;;;;;;5012137;28;20201;-84
2021/11/14 08:08:17;;;;;;;45.30;21.10;;;8.00;99.90;;;;;;5012437;28;20428;-82
2021/11/14 08:10:42;;;;;;;49.90;23.23;;;8.00;99.90;;;;;;5012324;28;20806;-83
2021/11/14 08:13:09;;;;;;;45.10;21.23;;;8.10;99.90;;;;;;5012455;28;20570;-84
2021/11/14 08:15:35;;;;;;;56.13;24.30;;;8.00;99.90;;;;;;5015931;28;20158;-83
2021/11/14 08:18:02;;;;;;;46.90;21.30;;;8.00;99.90;;;;;;5015515;28;20443;-82
2021/11/14 08:20:28;;;;;;;43.90;20.07;;;8.10;99.90;;;;;;5015373;28;20467;-85
2021/11/14 08:22:59;;;;;;;40.13;22.20;;;8.00;99.90;;;;;;5015874;28;20836;-85
2021/11/14 08:25:26;;;;;;;46.83;23.23;;;8.00;99.90;;;;;;5015976;28;20194;-85
2021/11/14 08:27:55;;;;;;;52.93;25.27;;;8.10;99.90;;;;;;5014338;28;20478;-82
2021/11/14 08:30:21;;;;;;;57.63;23.30;;;8.10;99.90;;;;;;5014637;28;20465;-83
2021/11/14 08:32:48;;;;;;;46.43;21.77;;;8.10;99.90;;;;;;5015714;28;20474;-82
2021/11/14 08:35:14;;;;;;;43.80;22.47;;;8.10;99.90;;;;;;5015846;28;20177;-82
2021/11/14 08:37:47;;;;;;;48.67;22.83;;;8.10;99.90;;;;;;5018901;28;20421;-82
2021/11/14 08:40:14;;;;;;;47.57;22.97;;;8.20;99.90;;;;;;5017983;28;20174;-82
2021/11/14 08:42:40;;;;;;;52.90;25.33;;;8.20;99.90;;;;;;5013803;28;20421;-83
2021/11/14 08:45:10;;;;;;;48.73;23.23;;;8.20;99.90;;;;;;5015523;28;20419;-83
2021/11/14 08:47:37;;;;;;;46.93;23.30;;;8.20;99.90;;;;;;5015417;28;20445;-82
2021/11/14 08:50:07;;;;;;;47.47;22.70;;;8.20;99.90;;;;;;5014071;28;20436;-83
2021/11/14 08:52:33;;;;;;;51.23;23.40;;;8.20;99.90;;;;;;5015113;28;20484;-81
2021/11/14 08:54:58;;;;;;;42.00;21.93;;;8.20;99.90;;;;;;5015457;28;20416;-82
2021/11/14 08:57:24;;;;;;;43.40;21.03;;;8.20;99.90;;;;;;5014407;28;20661;-82
2021/11/14 08:59:50;;;;;;;41.73;21.60;;;8.20;99.90;;;;;;5014488;28;20628;-82
2021/11/14 09:02:16;;;;;;;43.83;20.00;;;8.20;99.90;;;;;;5014350;28;20585;-80
2021/11/14 09:04:42;;;;;;;43.53;21.67;;;8.20;99.90;;;;;;5014900;28;20193;-81
2021/11/14 09:07:08;;;;;;;39.07;19.80;;;8.20;99.90;;;;;;5015151;28;20416;-81
2021/11/14 09:09:35;;;;;;;46.80;22.37;;;8.20;99.90;;;;;;5015080;28;20908;-80
2021/11/14 09:12:01;;;;;;;43.57;21.30;;;8.30;99.90;;;;;;5014873;28;20689;-81
2021/11/14 09:14:26;;;;;;;50.00;24.17;;;8.20;99.90;;;;;;5015212;28;20455;-81
2021/11/14 09:16:53;;;;;;;42.80;21.27;;;8.20;99.90;;;;;;5013364;28;20181;-82
2021/11/14 09:19:20;;;;;;;48.17;21.53;;;8.30;99.90;;;;;;5013911;28;20192;-81
2021/11/14 09:21:46;;;;;;;46.00;19.57;;;8.30;99.90;;;;;;5013863;28;20547;-82
2021/11/14 09:24:12;;;;;;;49.67;21.20;;;8.30;99.90;;;;;;5013852;28;20843;-80
2021/11/14 09:26:38;;;;;;;42.80;19.93;;;8.40;99.90;;;;;;5012893;28;20177;-81
2021/11/14 09:29:05;;;;;;;43.27;20.97;;;8.30;99.90;;;;;;5013745;28;20931;-81
2021/11/14 09:31:33;;;;;;;38.27;18.60;;;8.30;99.90;;;;;;5010241;28;20220;-80
2021/11/14 09:34:02;;;;;;;35.30;19.13;;;8.30;99.90;;;;;;5012803;28;20909;-81
2021/11/14 09:36:31;;;;;;;47.67;22.63;;;8.30;99.90;;;;;;5013012;28;20451;-81
2021/11/14 09:39:07;;;;;;;30.03;15.53;;;8.30;99.90;;;;;;5013183;28;21008;-81
2021/11/14 09:41:42;;;;;;;36.13;19.43;;;8.40;99.90;;;;;;5012635;28;20408;-81
2021/11/14 09:44:11;;;;;;;37.00;18.13;;;8.50;99.90;;;;;;5009825;28;20510;-81
2021/11/14 09:46:46;;;;;;;35.97;16.80;;;8.40;99.90;;;;;;5012819;28;20461;-81
2021/11/14 09:49:11;;;;;;;35.27;20.37;;;8.50;99.90;;;;;;5012775;28;20436;-82
2021/11/14 09:51:37;;;;;;;49.33;22.00;;;8.40;99.90;;;;;;5011464;28;20937;-81
2021/11/14 09:54:03;;;;;;;42.60;20.30;;;8.30;99.90;;;;;;5011485;28;20175;-82
2021/11/14 09:56:29;;;;;;;30.97;17.80;;;8.20;99.90;;;;;;5013260;28;20183;-82
2021/11/14 09:58:54;;;;;;;34.13;18.47;;;8.30;99.90;;;;;;5013555;28;20437;-82
2021/11/14 10:01:20;;;;;;;40.43;17.70;;;8.30;99.90;;;;;;5013713;28;20173;-82
2021/11/14 10:03:47;;;;;;;34.47;19.50;;;8.30;99.90;;;;;;5013921;28;20643;-82
2021/11/14 10:06:13;;;;;;;37.23;17.80;;;8.30;99.90;;;;;;5013769;28;20163;-81
2021/11/14 10:08:45;;;;;;;42.00;19.67;;;8.40;99.90;;;;;;5013620;28;20492;-82
2021/11/14 10:11:11;;;;;;;36.90;18.37;;;8.50;99.90;;;;;;5013342;28;20457;-81
2021/11/14 10:13:37;;;;;;;32.50;17.60;;;8.40;99.90;;;;;;5012490;28;20523;-82
2021/11/14 10:16:10;;;;;;;36.33;19.23;;;8.50;99.90;;;;;;5013780;28;20171;-82
2021/11/14 10:18:38;;;;;;;35.83;18.00;;;8.50;99.90;;;;;;5013656;28;20415;-82
2021/11/14 10:21:04;;;;;;;37.77;18.90;;;8.60;99.90;;;;;;5013663;28;20406;-82
2021/11/14 10:23:32;;;;;;;39.30;20.63;;;8.60;99.90;;;;;;5013663;28;20421;-82
2021/11/14 10:26:02;;;;;;;40.60;21.60;;;8.70;99.90;;;;;;5012939;28;20524;-81
2021/11/14 10:28:28;;;;;;;37.17;17.90;;;8.70;99.90;;;;;;5013455;28;20419;-82
2021/11/14 10:30:58;;;;;;;39.23;18.73;;;8.70;99.90;;;;;;5012080;28;20436;-82
2021/11/14 10:33:24;;;;;;;41.43;20.80;;;8.90;99.90;;;;;;5013521;28;20467;-82
2021/11/14 10:35:56;;;;;;;44.43;22.20;;;8.80;99.90;;;;;;5013551;28;20827;-82
2021/11/14 10:38:26;;;;;;;42.47;23.07;;;8.90;99.90;;;;;;5012422;28;20176;-82
2021/11/14 10:40:55;;;;;;;43.27;22.47;;;8.80;99.90;;;;;;5013093;28;20427;-82
2021/11/14 10:43:22;;;;;;;46.80;24.33;;;8.90;99.90;;;;;;5013298;28;20870;-81
2021/11/14 10:45:48;;;;;;;51.90;25.10;;;8.90;99.90;;;;;;5013510;28;20456;-82
2021/11/14 10:48:18;;;;;;;51.37;26.43;;;8.90;99.90;;;;;;5012114;28;20471;-82
2021/11/14 10:50:47;;;;;;;50.40;25.20;;;8.90;99.90;;;;;;5013452;28;20174;-82
2021/11/14 10:53:16;;;;;;;51.17;25.53;;;8.90;99.90;;;;;;5011990;28;20500;-82
2021/11/14 10:55:54;;;;;;;50.40;25.67;;;9.00;99.90;;;;;;5013113;28;20414;-81
2021/11/14 10:58:22;;;;;;;52.33;26.40;;;9.00;99.90;;;;;;5011955;28;21044;-81
2021/11/14 11:00:51;;;;;;;56.70;25.90;;;8.90;99.90;;;;;;5013344;28;20415;-87
2021/11/14 11:03:18;;;;;;;50.10;26.00;;;8.90;99.90;;;;;;5012986;28;20508;-83
2021/11/14 11:05:47;;;;;;;43.50;24.80;;;9.00;99.90;;;;;;5011813;28;20564;-85
2021/11/14 11:08:23;;;;;;;51.80;24.70;;;9.00;99.90;;;;;;5013051;28;20946;-83
2021/11/14 11:11:00;;;;;;;49.97;26.17;;;9.00;99.90;;;;;;5012540;28;20425;-83
2021/11/14 11:13:38;;;;;;;47.43;24.50;;;9.00;99.90;;;;;;5010536;28;20437;-82
2021/11/14 11:16:10;;;;;;;52.07;24.10;;;8.90;99.90;;;;;;5012932;28;20452;-83
2021/11/14 11:18:38;;;;;;;48.77;25.37;;;9.00;99.90;;;;;;5012648;28;20505;-84
2021/11/14 11:21:06;;;;;;;50.03;26.27;;;9.00;99.90;;;;;;5012582;28;20422;-82
2021/11/14 11:23:34;;;;;;;46.93;25.20;;;8.90;99.90;;;;;;5012620;28;20429;-81
2021/11/14 11:26:03;;;;;;;44.77;22.33;;;8.80;99.90;;;;;;5010105;28;20535;-81
2021/11/14 11:28:31;;;;;;;44.50;24.23;;;8.90;99.90;;;;;;5011214;28;20437;-80
2021/11/14 11:31:28;;;;;;;48.27;22.90;;;8.90;99.90;;;;;;5012199;28;20428;-81
2021/11/14 11:33:54;;;;;;;41.23;22.07;;;8.90;99.90;;;;;;5010239;28;20449;-82
2021/11/14 11:36:24;;;;;;;44.07;21.80;;;8.80;99.90;;;;;;5012104;28;20549;-81
2021/11/14 11:38:53;;;;;;;42.40;22.63;;;8.80;99.90;;;;;;5010718;28;20930;-80
2021/11/14 11:41:19;;;;;;;37.73;21.20;;;8.80;99.90;;;;;;5011359;28;20445;-80
2021/11/14 11:43:46;;;;;;;41.40;20.63;;;8.80;99.90;;;;;;5011950;28;20446;-80
2021/11/14 11:46:18;;;;;;;47.03;22.43;;;8.80;99.90;;;;;;5012346;28;20169;-81
2021/11/14 11:49:05;;;;;;;46.47;25.60;;;8.90;99.90;;;;;;5013237;28;20417;-82
2021/11/14 11:51:36;;;;;;;41.67;21.93;;;8.90;99.90;;;;;;5015951;28;20469;-81
2021/11/14 11:54:08;;;;;;;45.37;23.20;;;9.00;99.90;;;;;;5015875;28;20511;-81
2021/11/14 11:56:37;;;;;;;42.30;21.27;;;9.00;99.90;;;;;;5014323;28;20419;-83
2021/11/14 11:59:13;;;;;;;53.20;23.50;;;8.90;99.90;;;;;;5016034;28;20423;-80
2021/11/14 12:01:48;;;;;;;42.50;22.03;;;8.90;99.90;;;;;;5016022;28;20449;-81
2021/11/14 12:04:19;;;;;;;44.20;22.87;;;8.90;99.90;;;;;;5016233;28;20411;-81
2021/11/14 12:06:47;;;;;;;43.53;22.27;;;8.90;99.90;;;;;;5016545;28;21011;-84
2021/11/14 12:09:15;;;;;;;44.93;23.70;;;8.80;99.90;;;;;;5016954;28;20420;-80
2021/11/14 12:11:45;;;;;;;45.57;22.47;;;8.80;99.90;;;;;;5016017;28;20457;-83
2021/11/14 12:14:17;;;;;;;36.63;20.43;;;8.80;99.90;;;;;;5016398;28;20429;-83
2021/11/14 12:17:08;;;;;;;49.20;23.30;;;8.90;99.90;;;;;;5016308;28;20545;-84
2021/11/14 12:19:40;;;;;;;38.37;19.93;;;9.00;99.90;;;;;;5016314;28;20769;-82
2021/11/14 12:22:08;;;;;;;36.67;18.27;;;9.00;99.90;;;;;;5016492;28;20440;-81
2021/11/14 12:24:51;;;;;;;34.83;19.50;;;8.90;99.90;;;;;;5016086;28;20816;-82
2021/11/14 12:27:35;;;;;;;40.93;20.33;;;8.90;99.90;;;;;;5016071;28;20479;-83
2021/11/14 12:30:10;;;;;;;38.73;20.30;;;9.00;99.90;;;;;;5017422;28;20512;-80
2021/11/14 12:32:43;;;;;;;44.50;22.53;;;8.90;99.90;;;;;;5017571;28;20525;-83
2021/11/14 12:35:18;;;;;;;41.83;21.63;;;8.80;99.90;;;;;;5016677;28;20741;-83
2021/11/14 12:37:54;;;;;;;45.57;19.37;;;8.80;99.90;;;;;;5017509;28;20428;-82
2021/11/14 12:40:32;;;;;;;41.57;21.63;;;8.80;99.90;;;;;;5017502;28;20789;-82